Maersk Ahram — SSML — position and weather

sailwx.info

Track history (hours):
 
Tides and Currents Weather Stations Pressure Air Temp Water Temp Dewpoint Dewpoint Depression Visibility Wind Speed Wind Dir Waves Ship Positions

Maersk Ahram

Last reported at 2017-Nov-17 10:51 UTC. Time now 2017-Nov-17 17:45 UTC.
Position N 53°34' W 004°06'.

Length 155 m; draft 7.3 m.

Type: Cargo ship. MMSI: 622122208.

Date/timePositionNaut miles runAvg speedWind from/ knotsBaromVisibWave heightAir tempDewpointWater temp
2017-Nov-17 10:51N 53°34' W 004°06'616.1
2017-Nov-17 10:30N 53°34' W 003°56'815.7
2017-Nov-17 10:00N 53°34' W 003°43'815.2
2017-Nov-17 09:30N 53°34' W 003°30'714.1
2017-Nov-17 09:00N 53°32' W 003°18'5 9.3
2017-Nov-17 08:30N 53°32' W 003°11'510.6
2017-Nov-17 08:00N 53°28' W 003°04'2 3.7
2017-Nov-17 07:28N 53°27' W 003°01'0 0.0
2017-Nov-17 06:58N 53°27' W 003°01'1 1.0
2017-Nov-17 06:28N 53°28' W 003°02'0 0.4
2017-Nov-17 05:58N 53°28' W 003°02'0 0.0
2017-Nov-17 05:25N 53°28' W 003°02'0 0.0
2017-Nov-17 04:55N 53°28' W 003°02'0 0.0
2017-Nov-17 04:22N 53°28' W 003°02'0 0.0
2017-Nov-17 03:52N 53°28' W 003°02'0 0.0
2017-Nov-17 03:28N 53°28' W 003°02'0 0.0
2017-Nov-17 02:58N 53°28' W 003°02'0 0.0
2017-Nov-17 02:28N 53°28' W 003°02'0 0.0
2017-Nov-17 01:55N 53°28' W 003°02'0 0.0
2017-Nov-17 01:28N 53°28' W 003°02'0 0.0
2017-Nov-17 00:58N 53°28' W 003°02'0 0.0
2017-Nov-17 00:28N 53°28' W 003°02'0 0.0
2017-Nov-16 23:58N 53°28' W 003°02'0 0.0
2017-Nov-16 23:22N 53°28' W 003°02'0 0.0
2017-Nov-16 22:58N 53°28' W 003°02'0 0.0
2017-Nov-16 22:28N 53°28' W 003°02'0 0.0
2017-Nov-16 21:58N 53°28' W 003°02'0 0.0
2017-Nov-16 21:25N 53°28' W 003°02'0 0.0
2017-Nov-16 20:58N 53°28' W 003°02'0 0.0
2017-Nov-16 20:28N 53°28' W 003°02'0 0.0
2017-Nov-16 19:58N 53°28' W 003°02'0 0.0
2017-Nov-16 19:25N 53°28' W 003°02'0 0.0
2017-Nov-16 18:58N 53°28' W 003°02'0 0.0
2017-Nov-16 18:28N 53°28' W 003°02'0 0.0
2017-Nov-16 17:58N 53°28' W 003°02'0 0.0
2017-Nov-16 17:22N 53°28' W 003°02'0 0.0
2017-Nov-16 16:58N 53°28' W 003°02'0 0.0
2017-Nov-16 16:28N 53°28' W 003°02'0 0.0
2017-Nov-16 15:55N 53°28' W 003°02'0 0.0
2017-Nov-16 15:25N 53°28' W 003°02'0 0.0
2017-Nov-16 14:55N 53°28' W 003°02'0 0.0
2017-Nov-16 14:28N 53°28' W 003°02'0 0.0
2017-Nov-16 13:58N 53°28' W 003°02'0 0.0
2017-Nov-16 13:19N 53°28' W 003°02'0 0.0
2017-Nov-16 12:58N 53°28' W 003°02'0 0.0
2017-Nov-16 12:28N 53°28' W 003°02'0 0.0
2017-Nov-16 11:49N 53°28' W 003°02'0 0.0
2017-Nov-16 11:28N 53°28' W 003°02'0 0.0
2017-Nov-16 10:58N 53°28' W 003°02'0 0.0
2017-Nov-16 10:28N 53°28' W 003°02'0 0.0
2017-Nov-16 09:58N 53°28' W 003°02'0 0.0
2017-Nov-16 09:28N 53°28' W 003°02'0 0.0
2017-Nov-16 08:55N 53°28' W 003°02'0 0.0
2017-Nov-16 08:30N 53°28' W 003°02'1 1.4
2017-Nov-16 08:00N 53°27' W 003°01'0 0.2
2017-Nov-16 07:30N 53°27' W 003°01'0 0.6
2017-Nov-16 07:00N 53°27' W 003°01'1 2.4
2017-Nov-16 06:30N 53°27' W 003°03'5 9.3
2017-Nov-16 06:00N 53°31' W 003°07'612.7
2017-Nov-16 05:30N 53°31' W 003°18'4 8.1
2017-Nov-16 05:00N 53°31' W 003°25'4 7.6
2017-Nov-16 04:30N 53°30' W 003°31'3 6.9
2017-Nov-16 04:00N 53°31' W 003°37'3 6.4
2017-Nov-16 03:30N 53°31' W 003°42'3 6.1
2017-Nov-16 03:00N 53°31' W 003°47'4 7.9
2017-Nov-16 02:30N 53°30' W 003°54'15413.7
2017-Nov-15 15:16N 51°14' W 005°51'917.3
2017-Nov-15 14:43N 51°04' W 005°51'417.3
2017-Nov-15 14:30N 51°01' W 005°52'917.4
2017-Nov-15 13:59N 50°51' W 005°52'817.4
2017-Nov-15 13:30N 50°43' W 005°53'917.4
2017-Nov-15 13:01N 50°35' W 005°53'917.4
2017-Nov-15 12:29N 50°26' W 005°53'2117.1
2017-Nov-15 11:16N 50°05' W 005°53'1611.7
2017-Nov-15 09:53N 49°54' W 005°35'615.2
2017-Nov-15 09:30N 49°55' W 005°25'816.8
2017-Nov-15 09:00N 49°55' W 005°12'816.7
2017-Nov-15 08:31N 49°56' W 004°60'816.4
2017-Nov-15 08:01N 49°56' W 004°47'816.2
2017-Nov-15 07:31N 49°57' W 004°34'816.0
2017-Nov-15 07:00N 49°57' W 004°22'815.7
2017-Nov-15 06:30N 49°58' W 004°10'815.3
2017-Nov-15 06:01N 49°58' W 003°58'714.9
2017-Nov-15 05:30N 49°59' W 003°46'714.5
2017-Nov-15 05:01N 49°60' W 003°35'714.4
2017-Nov-15 04:30N 49°59' W 003°24'714.1
2017-Nov-15 04:00N 49°60' W 003°13'714.2
2017-Nov-15 03:30N 50°00' W 003°02'714.3
2017-Nov-15 03:00N 50°01' W 002°51'714.7
2017-Nov-15 02:31N 50°03' W 002°40'2616.2
2017-Nov-15 00:54N 50°11' W 002°01'717.7
2017-Nov-15 00:30N 50°13' W 001°51'917.9
2017-Nov-15 00:01N 50°15' W 001°37'918.1
2017-Nov-14 23:31N 50°18' W 001°24'918.1
2017-Nov-14 23:00N 50°20' W 001°10'2417.2
2017-Nov-14 21:36N 50°27' W 000°33'516.1
2017-Nov-14 21:17N 50°28' W 000°26'515.9
2017-Nov-14 20:58N 50°29' W 000°18'715.5
2017-Nov-14 20:30N 50°31' W 000°07'815.1
2017-Nov-14 20:00N 50°33' E 000°04'714.5
2017-Nov-14 19:30N 50°34' E 000°15'714.2
2017-Nov-14 19:01N 50°36' E 000°26'713.9
2017-Nov-14 18:30N 50°39' E 000°36'714.2
2017-Nov-14 18:00N 50°43' E 000°45'714.7
2017-Nov-14 17:30N 50°48' E 000°54'815.3
2017-Nov-14 17:00N 50°52' E 001°04'816.3
2017-Nov-14 16:30N 50°57' E 001°14'917.2
2017-Nov-14 16:00N 51°03' E 001°25'917.3
2017-Nov-14 15:30N 51°08' E 001°36'816.6
2017-Nov-14 15:01N 51°13' E 001°46'816.1
2017-Nov-14 14:31N 51°20' E 001°52'815.3
2017-Nov-14 14:00N 51°28' E 001°56'714.7
2017-Nov-14 13:30N 51°33' E 002°05'814.4
2017-Nov-14 12:58N 51°38' E 002°14'714.1
2017-Nov-14 12:30N 51°43' E 002°22'4613.4
2017-Nov-14 09:05N 52°04' E 003°27'514.3
2017-Nov-14 08:45N 52°04' E 003°35'414.1
2017-Nov-14 08:30N 52°04' E 003°40'714.1
2017-Nov-14 08:01N 52°03' E 003°52'5 9.4
2017-Nov-14 07:31N 52°01' E 003°59'510.5
2017-Nov-14 07:00N 51°58' E 004°05'3 6.5
2017-Nov-14 06:30N 51°58' E 003°60'1 1.3
2017-Nov-14 05:58N 51°57' E 004°00'0 0.0
2017-Nov-14 05:25N 51°57' E 004°00'0 0.0
2017-Nov-14 04:55N 51°57' E 004°00'0 0.0
2017-Nov-14 04:28N 51°57' E 004°00'0 0.0
2017-Nov-14 03:58N 51°57' E 004°00'0 0.0
2017-Nov-14 03:28N 51°57' E 004°00'0 0.0
2017-Nov-14 02:55N 51°57' E 004°00'0 0.0
2017-Nov-14 02:28N 51°57' E 004°00'0 0.0
2017-Nov-14 01:58N 51°57' E 004°00'0 0.0
2017-Nov-14 01:25N 51°57' E 004°00'0 0.0
2017-Nov-14 00:58N 51°57' E 004°00'0 0.0
2017-Nov-14 00:28N 51°57' E 004°00'0 0.0
2017-Nov-13 23:58N 51°57' E 004°00'0 0.0
2017-Nov-13 23:28N 51°57' E 004°00'0 0.0
2017-Nov-13 22:58N 51°57' E 004°00'0 0.0
2017-Nov-13 22:22N 51°57' E 004°00'0 0.0
2017-Nov-13 21:58N 51°57' E 004°00'71 3.3
2017-Nov-13 00:35N 51°29' E 002°15'212.9
2017-Nov-13 00:26N 51°28' E 002°13'613.2
2017-Nov-13 00:01N 51°24' E 002°07'713.4
2017-Nov-12 23:31N 51°20' E 001°59'713.8
2017-Nov-12 23:01N 51°14' E 001°51'713.1
2017-Nov-12 22:31N 51°09' E 001°44'612.5
2017-Nov-12 22:01N 51°04' E 001°38'713.2
2017-Nov-12 21:31N 50°60' E 001°31'612.7
2017-Nov-12 21:01N 50°54' E 001°26'5412.8
2017-Nov-12 16:46N 50°23' E 000°16'515.6
2017-Nov-12 16:29N 50°22' E 000°09'915.0
2017-Nov-12 15:53N 50°23' W 000°05'616.3
2017-Nov-12 15:30N 50°26' W 000°13'916.4
2017-Nov-12 14:58N 50°29' W 000°26'816.6
2017-Nov-12 14:31N 50°32' W 000°37'816.4
2017-Nov-12 14:00N 50°34' W 000°50'815.4
2017-Nov-12 13:29N 50°37' W 001°02'1 1.7
2017-Nov-12 12:59N 50°37' W 001°03'0 0.0
2017-Nov-12 12:20N 50°37' W 001°03'0 0.0
2017-Nov-12 11:59N 50°37' W 001°03'0 0.0
2017-Nov-12 11:29N 50°37' W 001°03'0 0.0
2017-Nov-12 10:59N 50°37' W 001°03'0 0.1
2017-Nov-12 10:29N 50°37' W 001°03'0 0.0
2017-Nov-12 09:59N 50°37' W 001°03'0 0.1
2017-Nov-12 09:29N 50°37' W 001°03'0 0.1
2017-Nov-12 08:59N 50°37' W 001°03'0 0.1
2017-Nov-12 08:29N 50°37' W 001°03'0 0.0
2017-Nov-12 07:59N 50°37' W 001°03'0 0.0
2017-Nov-12 07:29N 50°37' W 001°03'0 0.1
2017-Nov-12 06:59N 50°37' W 001°03'0 0.0
2017-Nov-12 06:29N 50°37' W 001°03'0 0.1
2017-Nov-12 05:59N 50°37' W 001°03'0 0.1
2017-Nov-12 05:29N 50°37' W 001°03'0 0.1
2017-Nov-12 05:00N 50°37' W 001°03'0 0.3
2017-Nov-12 04:30N 50°37' W 001°03'0 0.0
2017-Nov-12 04:00N 50°37' W 001°03'0 0.0
2017-Nov-12 03:30N 50°37' W 001°03'0 0.0
2017-Nov-12 03:00N 50°37' W 001°03'0 0.0
2017-Nov-12 02:30N 50°37' W 001°03'0 0.1
2017-Nov-12 02:00N 50°37' W 001°03'0 0.0
2017-Nov-12 01:30N 50°37' W 001°03'0 0.0
2017-Nov-12 01:00N 50°37' W 001°03'0 0.0
2017-Nov-12 00:30N 50°37' W 001°03'0 0.0
2017-Nov-12 00:00N 50°37' W 001°03'0 0.1
2017-Nov-11 23:30N 50°37' W 001°03'0 0.1
2017-Nov-11 23:00N 50°37' W 001°03'0 0.2
2017-Nov-11 22:30N 50°37' W 001°03'0 0.1
2017-Nov-11 22:00N 50°37' W 001°03'0 0.0
2017-Nov-11 21:30N 50°37' W 001°03'0 0.0
2017-Nov-11 21:00N 50°37' W 001°03'0 0.0
2017-Nov-11 20:30N 50°37' W 001°03'0 0.0
2017-Nov-11 20:00N 50°37' W 001°03'0 0.0
2017-Nov-11 19:30N 50°37' W 001°03'0 0.0
2017-Nov-11 19:00N 50°37' W 001°03'0 0.0
2017-Nov-11 18:30N 50°37' W 001°03'0 0.0
2017-Nov-11 18:00N 50°37' W 001°03'0 0.1
2017-Nov-11 17:30N 50°37' W 001°03'0 0.1
2017-Nov-11 16:57N 50°37' W 001°03'0 0.3
2017-Nov-11 16:30N 50°37' W 001°03'0 0.1
2017-Nov-11 16:00N 50°37' W 001°03'1 1.3
2017-Nov-11 15:31N 50°37' W 001°02'4 7.9
2017-Nov-11 15:01N 50°36' W 000°56'510.8
2017-Nov-11 14:31N 50°31' W 000°60'713.7
2017-Nov-11 14:00N 50°27' W 001°09'17 5.3
2017-Nov-11 10:47N 50°13' W 000°54'311.5
2017-Nov-11 10:31N 50°10' W 000°58'611.9
2017-Nov-11 10:00N 50°09' W 001°07'611.4
2017-Nov-11 09:30N 50°07' W 001°15'510.7
2017-Nov-11 09:00N 50°06' W 001°23'510.4
2017-Nov-11 08:30N 50°05' W 001°31'510.1
2017-Nov-11 08:00N 50°03' W 001°39'5 9.8
2017-Nov-11 07:30N 50°02' W 001°46'5 9.6
2017-Nov-11 07:00N 50°01' W 001°53'5 9.5
2017-Nov-11 06:30N 49°59' W 002°00'5 9.9
2017-Nov-11 06:00N 49°57' W 002°07'510.5
2017-Nov-11 05:30N 49°56' W 002°15'611.1
2017-Nov-11 05:00N 49°55' W 002°24'611.6
2017-Nov-11 04:30N 49°53' W 002°32'612.1
2017-Nov-11 04:00N 49°52' W 002°41'612.3
2017-Nov-11 03:29N 49°50' W 002°51'1512.6
2017-Nov-11 02:16N 49°42' W 003°12'412.7
2017-Nov-11 01:58N 49°40' W 003°17'6313.4
2017-Nov-10 21:15N 49°08' W 004°40'613.9
2017-Nov-10 20:51N 49°06' W 004°48'814.0
2017-Nov-10 20:15N 49°01' W 004°59'413.9
2017-Nov-10 19:59N 48°60' W 005°04'713.9
2017-Nov-10 19:30N 48°56' W 005°12'813.6
2017-Nov-10 18:54N 48°52' W 005°23'513.4
2017-Nov-10 18:30N 48°49' W 005°30'712.5
2017-Nov-10 17:59N 48°43' W 005°35'5 9.5
2017-Nov-10 17:28N 48°40' W 005°40'4 9.0
2017-Nov-10 17:00N 48°36' W 005°44'713.4
2017-Nov-10 16:30N 48°30' W 005°48'713.8
2017-Nov-10 16:00N 48°24' W 005°52'713.4
2017-Nov-10 15:31N 48°18' W 005°57'713.3
2017-Nov-10 14:59N 48°12' W 006°02'1113.1
2017-Nov-10 14:10N 48°03' W 006°09'7913.1
2017-Nov-10 08:05N 46°52' W 007°03'113.2
2017-Nov-10 07:59N 46°51' W 007°04'1012.7
2017-Nov-10 07:10N 46°42' W 007°11'445 9.0
2017-Nov-08 05:55N 39°32' W 009°52'511.2
2017-Nov-08 05:30N 39°27' W 009°52'611.6
2017-Nov-08 04:58N 39°21' W 009°51'511.9
2017-Nov-08 04:30N 39°16' W 009°51'612.2
2017-Nov-08 04:01N 39°10' W 009°51'611.8
2017-Nov-08 03:30N 39°04' W 009°50'612.2
2017-Nov-08 03:00N 38°58' W 009°51'612.0
2017-Nov-08 02:31N 38°52' W 009°51'612.5
2017-Nov-08 02:00N 38°45' W 009°52'612.7
2017-Nov-08 01:30N 38°39' W 009°50'612.7
2017-Nov-08 01:00N 38°33' W 009°48'612.8
2017-Nov-08 00:30N 38°27' W 009°46'713.0
2017-Nov-08 00:00N 38°20' W 009°44'713.0
2017-Nov-07 23:30N 38°14' W 009°43'713.1
2017-Nov-07 23:00N 38°08' W 009°41'713.4
2017-Nov-07 22:30N 38°01' W 009°39'713.5
2017-Nov-07 22:01N 37°55' W 009°37'713.5
2017-Nov-07 21:30N 37°48' W 009°35'  
Track history (hours):
 
Tides and Currents Weather Stations Pressure Air Temp Water Temp Dewpoint Dewpoint Depression Visibility Wind Speed Wind Dir Waves Ship Positions

Maersk Ahram

Last reported at 2017-Nov-17 10:51 UTC. Time now 2017-Nov-17 17:45 UTC.
Position N 53°34' W 004°06'.

Length 155 m; draft 7.3 m.

Type: Cargo ship. MMSI: 622122208.

Date/timePositionNaut miles runAvg speedWind from/ knotsBaromVisibWave heightAir tempDewpointWater temp
2017-Nov-17 10:51N 53°34' W 004°06'616.1
2017-Nov-17 10:30N 53°34' W 003°56'815.7
2017-Nov-17 10:00N 53°34' W 003°43'815.2
2017-Nov-17 09:30N 53°34' W 003°30'714.1
2017-Nov-17 09:00N 53°32' W 003°18'5 9.3
2017-Nov-17 08:30N 53°32' W 003°11'510.6
2017-Nov-17 08:00N 53°28' W 003°04'2 3.7
2017-Nov-17 07:28N 53°27' W 003°01'0 0.0
2017-Nov-17 06:58N 53°27' W 003°01'1 1.0
2017-Nov-17 06:28N 53°28' W 003°02'0 0.4
2017-Nov-17 05:58N 53°28' W 003°02'0 0.0
2017-Nov-17 05:25N 53°28' W 003°02'0 0.0
2017-Nov-17 04:55N 53°28' W 003°02'0 0.0
2017-Nov-17 04:22N 53°28' W 003°02'0 0.0
2017-Nov-17 03:52N 53°28' W 003°02'0 0.0
2017-Nov-17 03:28N 53°28' W 003°02'0 0.0
2017-Nov-17 02:58N 53°28' W 003°02'0 0.0
2017-Nov-17 02:28N 53°28' W 003°02'0 0.0
2017-Nov-17 01:55N 53°28' W 003°02'0 0.0
2017-Nov-17 01:28N 53°28' W 003°02'0 0.0
2017-Nov-17 00:58N 53°28' W 003°02'0 0.0
2017-Nov-17 00:28N 53°28' W 003°02'0 0.0
2017-Nov-16 23:58N 53°28' W 003°02'0 0.0
2017-Nov-16 23:22N 53°28' W 003°02'0 0.0
2017-Nov-16 22:58N 53°28' W 003°02'0 0.0
2017-Nov-16 22:28N 53°28' W 003°02'0 0.0
2017-Nov-16 21:58N 53°28' W 003°02'0 0.0
2017-Nov-16 21:25N 53°28' W 003°02'0 0.0
2017-Nov-16 20:58N 53°28' W 003°02'0 0.0
2017-Nov-16 20:28N 53°28' W 003°02'0 0.0
2017-Nov-16 19:58N 53°28' W 003°02'0 0.0
2017-Nov-16 19:25N 53°28' W 003°02'0 0.0
2017-Nov-16 18:58N 53°28' W 003°02'0 0.0
2017-Nov-16 18:28N 53°28' W 003°02'0 0.0
2017-Nov-16 17:58N 53°28' W 003°02'0 0.0
2017-Nov-16 17:22N 53°28' W 003°02'0 0.0
2017-Nov-16 16:58N 53°28' W 003°02'0 0.0
2017-Nov-16 16:28N 53°28' W 003°02'0 0.0
2017-Nov-16 15:55N 53°28' W 003°02'0 0.0
2017-Nov-16 15:25N 53°28' W 003°02'0 0.0
2017-Nov-16 14:55N 53°28' W 003°02'0 0.0
2017-Nov-16 14:28N 53°28' W 003°02'0 0.0
2017-Nov-16 13:58N 53°28' W 003°02'0 0.0
2017-Nov-16 13:19N 53°28' W 003°02'0 0.0
2017-Nov-16 12:58N 53°28' W 003°02'0 0.0
2017-Nov-16 12:28N 53°28' W 003°02'0 0.0
2017-Nov-16 11:49N 53°28' W 003°02'0 0.0
2017-Nov-16 11:28N 53°28' W 003°02'0 0.0
2017-Nov-16 10:58N 53°28' W 003°02'0 0.0
2017-Nov-16 10:28N 53°28' W 003°02'0 0.0
2017-Nov-16 09:58N 53°28' W 003°02'0 0.0
2017-Nov-16 09:28N 53°28' W 003°02'0 0.0
2017-Nov-16 08:55N 53°28' W 003°02'0 0.0
2017-Nov-16 08:30N 53°28' W 003°02'1 1.4
2017-Nov-16 08:00N 53°27' W 003°01'0 0.2
2017-Nov-16 07:30N 53°27' W 003°01'0 0.6
2017-Nov-16 07:00N 53°27' W 003°01'1 2.4
2017-Nov-16 06:30N 53°27' W 003°03'5 9.3
2017-Nov-16 06:00N 53°31' W 003°07'612.7
2017-Nov-16 05:30N 53°31' W 003°18'4 8.1
2017-Nov-16 05:00N 53°31' W 003°25'4 7.6
2017-Nov-16 04:30N 53°30' W 003°31'3 6.9
2017-Nov-16 04:00N 53°31' W 003°37'3 6.4
2017-Nov-16 03:30N 53°31' W 003°42'3 6.1
2017-Nov-16 03:00N 53°31' W 003°47'4 7.9
2017-Nov-16 02:30N 53°30' W 003°54'15413.7
2017-Nov-15 15:16N 51°14' W 005°51'917.3
2017-Nov-15 14:43N 51°04' W 005°51'417.3
2017-Nov-15 14:30N 51°01' W 005°52'917.4
2017-Nov-15 13:59N 50°51' W 005°52'817.4
2017-Nov-15 13:30N 50°43' W 005°53'917.4
2017-Nov-15 13:01N 50°35' W 005°53'917.4
2017-Nov-15 12:29N 50°26' W 005°53'2117.1
2017-Nov-15 11:16N 50°05' W 005°53'1611.7
2017-Nov-15 09:53N 49°54' W 005°35'615.2
2017-Nov-15 09:30N 49°55' W 005°25'816.8
2017-Nov-15 09:00N 49°55' W 005°12'816.7
2017-Nov-15 08:31N 49°56' W 004°60'816.4
2017-Nov-15 08:01N 49°56' W 004°47'816.2
2017-Nov-15 07:31N 49°57' W 004°34'816.0
2017-Nov-15 07:00N 49°57' W 004°22'815.7
2017-Nov-15 06:30N 49°58' W 004°10'815.3
2017-Nov-15 06:01N 49°58' W 003°58'714.9
2017-Nov-15 05:30N 49°59' W 003°46'714.5
2017-Nov-15 05:01N 49°60' W 003°35'714.4
2017-Nov-15 04:30N 49°59' W 003°24'714.1
2017-Nov-15 04:00N 49°60' W 003°13'714.2
2017-Nov-15 03:30N 50°00' W 003°02'714.3
2017-Nov-15 03:00N 50°01' W 002°51'714.7
2017-Nov-15 02:31N 50°03' W 002°40'2616.2
2017-Nov-15 00:54N 50°11' W 002°01'717.7
2017-Nov-15 00:30N 50°13' W 001°51'917.9
2017-Nov-15 00:01N 50°15' W 001°37'918.1
2017-Nov-14 23:31N 50°18' W 001°24'918.1
2017-Nov-14 23:00N 50°20' W 001°10'2417.2
2017-Nov-14 21:36N 50°27' W 000°33'516.1
2017-Nov-14 21:17N 50°28' W 000°26'515.9
2017-Nov-14 20:58N 50°29' W 000°18'715.5
2017-Nov-14 20:30N 50°31' W 000°07'815.1
2017-Nov-14 20:00N 50°33' E 000°04'714.5
2017-Nov-14 19:30N 50°34' E 000°15'714.2
2017-Nov-14 19:01N 50°36' E 000°26'713.9
2017-Nov-14 18:30N 50°39' E 000°36'714.2
2017-Nov-14 18:00N 50°43' E 000°45'714.7
2017-Nov-14 17:30N 50°48' E 000°54'815.3
2017-Nov-14 17:00N 50°52' E 001°04'816.3
2017-Nov-14 16:30N 50°57' E 001°14'917.2
2017-Nov-14 16:00N 51°03' E 001°25'917.3
2017-Nov-14 15:30N 51°08' E 001°36'816.6
2017-Nov-14 15:01N 51°13' E 001°46'816.1
2017-Nov-14 14:31N 51°20' E 001°52'815.3
2017-Nov-14 14:00N 51°28' E 001°56'714.7
2017-Nov-14 13:30N 51°33' E 002°05'814.4
2017-Nov-14 12:58N 51°38' E 002°14'714.1
2017-Nov-14 12:30N 51°43' E 002°22'4613.4
2017-Nov-14 09:05N 52°04' E 003°27'514.3
2017-Nov-14 08:45N 52°04' E 003°35'414.1
2017-Nov-14 08:30N 52°04' E 003°40'714.1
2017-Nov-14 08:01N 52°03' E 003°52'5 9.4
2017-Nov-14 07:31N 52°01' E 003°59'510.5
2017-Nov-14 07:00N 51°58' E 004°05'3 6.5
2017-Nov-14 06:30N 51°58' E 003°60'1 1.3
2017-Nov-14 05:58N 51°57' E 004°00'0 0.0
2017-Nov-14 05:25N 51°57' E 004°00'0 0.0
2017-Nov-14 04:55N 51°57' E 004°00'0 0.0
2017-Nov-14 04:28N 51°57' E 004°00'0 0.0
2017-Nov-14 03:58N 51°57' E 004°00'0 0.0
2017-Nov-14 03:28N 51°57' E 004°00'0 0.0
2017-Nov-14 02:55N 51°57' E 004°00'0 0.0
2017-Nov-14 02:28N 51°57' E 004°00'0 0.0
2017-Nov-14 01:58N 51°57' E 004°00'0 0.0
2017-Nov-14 01:25N 51°57' E 004°00'0 0.0
2017-Nov-14 00:58N 51°57' E 004°00'0 0.0
2017-Nov-14 00:28N 51°57' E 004°00'0 0.0
2017-Nov-13 23:58N 51°57' E 004°00'0 0.0
2017-Nov-13 23:28N 51°57' E 004°00'0 0.0
2017-Nov-13 22:58N 51°57' E 004°00'0 0.0
2017-Nov-13 22:22N 51°57' E 004°00'0 0.0
2017-Nov-13 21:58N 51°57' E 004°00'71 3.3
2017-Nov-13 00:35N 51°29' E 002°15'212.9
2017-Nov-13 00:26N 51°28' E 002°13'613.2
2017-Nov-13 00:01N 51°24' E 002°07'713.4
2017-Nov-12 23:31N 51°20' E 001°59'713.8
2017-Nov-12 23:01N 51°14' E 001°51'713.1
2017-Nov-12 22:31N 51°09' E 001°44'612.5
2017-Nov-12 22:01N 51°04' E 001°38'713.2
2017-Nov-12 21:31N 50°60' E 001°31'612.7
2017-Nov-12 21:01N 50°54' E 001°26'5412.8
2017-Nov-12 16:46N 50°23' E 000°16'515.6
2017-Nov-12 16:29N 50°22' E 000°09'915.0
2017-Nov-12 15:53N 50°23' W 000°05'616.3
2017-Nov-12 15:30N 50°26' W 000°13'916.4
2017-Nov-12 14:58N 50°29' W 000°26'816.6
2017-Nov-12 14:31N 50°32' W 000°37'816.4
2017-Nov-12 14:00N 50°34' W 000°50'815.4
2017-Nov-12 13:29N 50°37' W 001°02'1 1.7
2017-Nov-12 12:59N 50°37' W 001°03'0 0.0
2017-Nov-12 12:20N 50°37' W 001°03'0 0.0
2017-Nov-12 11:59N 50°37' W 001°03'0 0.0
2017-Nov-12 11:29N 50°37' W 001°03'0 0.0
2017-Nov-12 10:59N 50°37' W 001°03'0 0.1
2017-Nov-12 10:29N 50°37' W 001°03'0 0.0
2017-Nov-12 09:59N 50°37' W 001°03'0 0.1
2017-Nov-12 09:29N 50°37' W 001°03'0 0.1
2017-Nov-12 08:59N 50°37' W 001°03'0 0.1
2017-Nov-12 08:29N 50°37' W 001°03'0 0.0
2017-Nov-12 07:59N 50°37' W 001°03'0 0.0
2017-Nov-12 07:29N 50°37' W 001°03'0 0.1
2017-Nov-12 06:59N 50°37' W 001°03'0 0.0
2017-Nov-12 06:29N 50°37' W 001°03'0 0.1
2017-Nov-12 05:59N 50°37' W 001°03'0 0.1
2017-Nov-12 05:29N 50°37' W 001°03'0 0.1
2017-Nov-12 05:00N 50°37' W 001°03'0 0.3
2017-Nov-12 04:30N 50°37' W 001°03'0 0.0
2017-Nov-12 04:00N 50°37' W 001°03'0 0.0
2017-Nov-12 03:30N 50°37' W 001°03'0 0.0
2017-Nov-12 03:00N 50°37' W 001°03'0 0.0
2017-Nov-12 02:30N 50°37' W 001°03'0 0.1
2017-Nov-12 02:00N 50°37' W 001°03'0 0.0
2017-Nov-12 01:30N 50°37' W 001°03'0 0.0
2017-Nov-12 01:00N 50°37' W 001°03'0 0.0
2017-Nov-12 00:30N 50°37' W 001°03'0 0.0
2017-Nov-12 00:00N 50°37' W 001°03'0 0.1
2017-Nov-11 23:30N 50°37' W 001°03'0 0.1
2017-Nov-11 23:00N 50°37' W 001°03'0 0.2
2017-Nov-11 22:30N 50°37' W 001°03'0 0.1
2017-Nov-11 22:00N 50°37' W 001°03'0 0.0
2017-Nov-11 21:30N 50°37' W 001°03'0 0.0
2017-Nov-11 21:00N 50°37' W 001°03'0 0.0
2017-Nov-11 20:30N 50°37' W 001°03'0 0.0
2017-Nov-11 20:00N 50°37' W 001°03'0 0.0
2017-Nov-11 19:30N 50°37' W 001°03'0 0.0
2017-Nov-11 19:00N 50°37' W 001°03'0 0.0
2017-Nov-11 18:30N 50°37' W 001°03'0 0.0
2017-Nov-11 18:00N 50°37' W 001°03'0 0.1
2017-Nov-11 17:30N 50°37' W 001°03'0 0.1
2017-Nov-11 16:57N 50°37' W 001°03'0 0.3
2017-Nov-11 16:30N 50°37' W 001°03'0 0.1
2017-Nov-11 16:00N 50°37' W 001°03'1 1.3
2017-Nov-11 15:31N 50°37' W 001°02'4 7.9
2017-Nov-11 15:01N 50°36' W 000°56'510.8
2017-Nov-11 14:31N 50°31' W 000°60'713.7
2017-Nov-11 14:00N 50°27' W 001°09'17 5.3
2017-Nov-11 10:47N 50°13' W 000°54'311.5
2017-Nov-11 10:31N 50°10' W 000°58'611.9
2017-Nov-11 10:00N 50°09' W 001°07'611.4
2017-Nov-11 09:30N 50°07' W 001°15'510.7
2017-Nov-11 09:00N 50°06' W 001°23'510.4
2017-Nov-11 08:30N 50°05' W 001°31'510.1
2017-Nov-11 08:00N 50°03' W 001°39'5 9.8
2017-Nov-11 07:30N 50°02' W 001°46'5 9.6
2017-Nov-11 07:00N 50°01' W 001°53'5 9.5
2017-Nov-11 06:30N 49°59' W 002°00'5 9.9
2017-Nov-11 06:00N 49°57' W 002°07'510.5
2017-Nov-11 05:30N 49°56' W 002°15'611.1
2017-Nov-11 05:00N 49°55' W 002°24'611.6
2017-Nov-11 04:30N 49°53' W 002°32'612.1
2017-Nov-11 04:00N 49°52' W 002°41'612.3
2017-Nov-11 03:29N 49°50' W 002°51'1512.6
2017-Nov-11 02:16N 49°42' W 003°12'412.7
2017-Nov-11 01:58N 49°40' W 003°17'6313.4
2017-Nov-10 21:15N 49°08' W 004°40'613.9
2017-Nov-10 20:51N 49°06' W 004°48'814.0
2017-Nov-10 20:15N 49°01' W 004°59'413.9
2017-Nov-10 19:59N 48°60' W 005°04'713.9
2017-Nov-10 19:30N 48°56' W 005°12'813.6
2017-Nov-10 18:54N 48°52' W 005°23'513.4
2017-Nov-10 18:30N 48°49' W 005°30'712.5
2017-Nov-10 17:59N 48°43' W 005°35'5 9.5
2017-Nov-10 17:28N 48°40' W 005°40'4 9.0
2017-Nov-10 17:00N 48°36' W 005°44'713.4
2017-Nov-10 16:30N 48°30' W 005°48'713.8
2017-Nov-10 16:00N 48°24' W 005°52'713.4
2017-Nov-10 15:31N 48°18' W 005°57'713.3
2017-Nov-10 14:59N 48°12' W 006°02'1113.1
2017-Nov-10 14:10N 48°03' W 006°09'7913.1
2017-Nov-10 08:05N 46°52' W 007°03'113.2
2017-Nov-10 07:59N 46°51' W 007°04'1012.7
2017-Nov-10 07:10N 46°42' W 007°11'445 9.0
2017-Nov-08 05:55N 39°32' W 009°52'511.2
2017-Nov-08 05:30N 39°27' W 009°52'611.6
2017-Nov-08 04:58N 39°21' W 009°51'511.9
2017-Nov-08 04:30N 39°16' W 009°51'612.2
2017-Nov-08 04:01N 39°10' W 009°51'611.8
2017-Nov-08 03:30N 39°04' W 009°50'612.2
2017-Nov-08 03:00N 38°58' W 009°51'612.0
2017-Nov-08 02:31N 38°52' W 009°51'612.5
2017-Nov-08 02:00N 38°45' W 009°52'612.7
2017-Nov-08 01:30N 38°39' W 009°50'612.7
2017-Nov-08 01:00N 38°33' W 009°48'612.8
2017-Nov-08 00:30N 38°27' W 009°46'713.0
2017-Nov-08 00:00N 38°20' W 009°44'713.0
2017-Nov-07 23:30N 38°14' W 009°43'713.1
2017-Nov-07 23:00N 38°08' W 009°41'713.4
2017-Nov-07 22:30N 38°01' W 009°39'713.5
2017-Nov-07 22:01N 37°55' W 009°37'713.5
2017-Nov-07 21:30N 37°48' W 009°35'  

Dump ship's entire track history